Time;durP1;ratioP1;P1;durP2;ratioP2;P2;SDS_P1;SDS_P2;PMS_P1;PMS_P2;Temp;Humidity;BMP_temperature;BMP_pressure;BME280_temperature;BME280_humidity;BME280_pressure;Samples;Min_cycle;Max_cycle;Signal;HPM_P1;HPM_P2
2022/01/16 00:00:48;;;;;;;25.37;16.87;;;;;;;3.55;90.21;102316.97;5072358;28;20333;-72
2022/01/16 00:05:59;;;;;;;27.37;16.33;;;;;;;3.48;89.88;102318.19;5072520;28;20212;-73
2022/01/16 00:08:24;;;;;;;28.60;18.13;;;;;;;3.42;90.64;102311.81;5070841;28;20571;-72
2022/01/16 00:10:49;;;;;;;29.37;17.97;;;;;;;3.38;90.93;102304.78;5072636;28;20178;-72
2022/01/16 00:13:15;;;;;;;26.03;16.67;;;;;;;3.33;90.71;102303.56;5066444;28;20185;-73
2022/01/16 00:15:44;;;;;;;27.57;17.90;;;;;;;3.29;90.73;102294.88;5071028;28;20193;-73
2022/01/16 00:18:19;;;;;;;26.80;17.40;;;;;;;3.23;90.70;102291.03;5072523;28;20212;-74
2022/01/16 00:20:44;;;;;;;28.73;19.30;;;;;;;3.17;90.54;102288.06;5072249;28;20207;-74
2022/01/16 00:23:10;;;;;;;29.10;18.93;;;;;;;3.11;90.34;102277.50;5072273;28;20189;-72
2022/01/16 00:25:36;;;;;;;31.60;18.07;;;;;;;3.10;90.81;102284.22;5072222;28;20215;-73
2022/01/16 00:28:02;;;;;;;29.53;18.37;;;;;;;3.06;91.36;102288.94;5070685;28;20209;-75
2022/01/16 00:30:27;;;;;;;26.67;17.53;;;;;;;3.03;91.18;102293.78;5073677;28;20188;-73
2022/01/16 00:32:54;;;;;;;29.27;19.20;;;;;;;2.99;90.78;102301.94;5072037;28;20189;-72
2022/01/16 00:35:19;;;;;;;29.17;18.83;;;;;;;2.89;90.65;102304.56;5071853;28;20313;-72
2022/01/16 00:37:47;;;;;;;29.90;18.73;;;;;;;2.88;90.89;102302.78;5071881;28;20209;-72
2022/01/16 00:40:12;;;;;;;29.03;17.77;;;;;;;2.89;90.49;102282.66;5071811;28;20204;-73
2022/01/16 00:42:37;;;;;;;26.37;18.07;;;;;;;2.80;90.84;102282.00;5071919;28;20563;-72
2022/01/16 00:45:04;;;;;;;27.77;17.30;;;;;;;2.76;90.12;102284.19;5071991;28;20181;-72
2022/01/16 00:47:29;;;;;;;29.93;20.07;;;;;;;2.79;91.71;102284.41;5071795;28;20292;-71
2022/01/16 00:49:54;;;;;;;30.37;19.73;;;;;;;2.78;92.22;102263.31;5072009;28;20267;-72
2022/01/16 00:52:20;;;;;;;28.53;18.07;;;;;;;2.75;91.91;102245.38;5070579;28;20680;-72
2022/01/16 00:54:45;;;;;;;28.13;17.97;;;;;;;2.66;91.53;102229.53;5071589;28;20264;-72
2022/01/16 00:57:11;;;;;;;26.97;17.40;;;;;;;2.65;90.88;102234.47;5071658;28;20208;-74
2022/01/16 00:59:36;;;;;;;28.40;18.13;;;;;;;2.51;90.87;102230.97;5071464;28;20192;-72
2022/01/16 01:02:02;;;;;;;28.53;17.17;;;;;;;2.47;91.27;102217.97;5071660;28;20275;-72
2022/01/16 01:04:27;;;;;;;30.00;17.33;;;;;;;2.45;90.83;102220.41;5071559;28;20271;-74
2022/01/16 01:06:53;;;;;;;27.73;17.93;;;;;;;2.41;91.11;102228.53;5067743;28;20213;-72
2022/01/16 01:09:19;;;;;;;29.27;17.63;;;;;;;2.44;91.79;102240.50;5059336;28;20272;-72
2022/01/16 01:11:48;;;;;;;26.20;17.20;;;;;;;2.39;91.00;102231.72;5058319;28;20197;-72
2022/01/16 01:14:38;;;;;;;28.27;18.27;;;;;;;2.40;92.71;102238.50;5072120;28;20559;-73
2022/01/16 01:17:04;;;;;;;27.10;17.10;;;;;;;2.37;92.92;102221.47;5072083;28;20581;-73
2022/01/16 01:19:33;;;;;;;31.57;18.20;;;;;;;2.32;92.03;102219.38;5071665;28;20319;-73
2022/01/16 01:22:00;;;;;;;30.07;18.33;;;;;;;2.35;92.16;102215.41;5069127;28;20601;-72
2022/01/16 01:24:26;;;;;;;30.27;17.93;;;;;;;2.35;92.35;102212.03;5063772;28;20799;-72
2022/01/16 01:27:20;;;;;;;31.17;19.43;;;;;;;2.38;93.49;102214.75;5051879;28;20201;-72
2022/01/16 01:29:39;;;;;;;31.63;18.97;;;;;;;2.32;93.29;102214.31;5069146;28;20219;-72
2022/01/16 01:32:05;;;;;;;33.37;19.37;;;;;;;2.38;93.08;102220.72;5071748;28;20181;-73
2022/01/16 01:34:30;;;;;;;28.57;18.73;;;;;;;2.40;93.49;102229.31;5071657;28;20667;-72
2022/01/16 01:36:56;;;;;;;29.80;18.23;;;;;;;2.41;93.70;102223.47;5071621;28;20197;-73
2022/01/16 01:39:22;;;;;;;26.53;18.03;;;;;;;2.44;93.66;102233.78;5071462;28;20195;-73
2022/01/16 01:41:51;;;;;;;29.43;18.73;;;;;;;2.47;93.64;102240.72;5071676;28;20179;-72
2022/01/16 01:52:30;;;;;;;29.77;18.80;;;;;;;2.50;93.04;102133.16;5058333;28;20220;-71
2022/01/16 01:54:55;;;;;;;30.27;18.23;;;;;;;2.53;94.16;102109.75;5066726;28;20232;-72
2022/01/16 01:57:20;;;;;;;31.23;18.23;;;;;;;2.55;93.75;102115.78;5059318;28;20550;-73
2022/01/16 01:59:46;;;;;;;27.30;17.20;;;;;;;2.52;93.97;102110.53;5061282;28;20197;-72
2022/01/16 02:02:11;;;;;;;31.73;18.43;;;;;;;2.50;93.37;102122.16;5058794;28;20201;-72
2022/01/16 02:04:37;;;;;;;32.03;18.00;;;;;;;2.49;94.05;102146.53;5061594;28;20200;-72
2022/01/16 02:07:02;;;;;;;29.23;17.90;;;;;;;2.53;93.56;102153.59;5070194;28;20228;-72
2022/01/16 02:09:28;;;;;;;29.37;18.27;;;;;;;2.55;93.32;102162.16;5068126;28;20243;-72
2022/01/16 02:11:53;;;;;;;33.80;19.03;;;;;;;2.53;94.27;102158.63;5062936;28;20193;-74
2022/01/16 02:28:19;;;;;;;34.33;22.53;;;;;;;2.66;94.90;102147.78;5059430;28;20233;-75
2022/01/16 02:36:02;;;;;;;35.37;21.90;;;;;;;2.71;96.50;102164.16;5068407;28;20193;-72
2022/01/16 02:38:27;;;;;;;36.63;22.53;;;;;;;2.72;96.07;102171.81;5061420;28;20217;-71
2022/01/16 02:41:01;;;;;;;38.00;23.67;;;;;;;2.73;96.47;102171.06;5052832;28;20316;-74
2022/01/16 02:43:34;;;;;;;38.23;24.70;;;;;;;2.74;96.71;102172.84;5062948;28;20201;-74
2022/01/16 02:46:35;;;;;;;36.73;24.13;;;;;;;2.75;96.25;102168.66;5070321;28;20207;-72
2022/01/16 02:48:54;;;;;;;38.63;24.67;;;;;;;2.77;96.64;102173.06;5057839;28;20236;-73
2022/01/16 02:51:22;;;;;;;41.10;25.17;;;;;;;2.77;96.85;102170.53;5068656;28;20254;-73
2022/01/16 02:53:48;;;;;;;38.33;24.30;;;;;;;2.79;97.00;102157.97;5067896;28;20185;-71
2022/01/16 02:56:14;;;;;;;41.03;25.53;;;;;;;2.79;97.05;102153.81;5056852;28;20240;-71
2022/01/16 02:58:41;;;;;;;40.60;24.60;;;;;;;2.78;96.92;102154.59;5059932;28;20700;-71
2022/01/16 03:01:06;;;;;;;44.47;26.27;;;;;;;2.77;97.01;102147.78;5064983;28;20192;-72
2022/01/16 03:03:32;;;;;;;44.03;26.97;;;;;;;2.76;97.35;102130.81;5069995;28;20539;-71
2022/01/16 03:05:58;;;;;;;51.57;27.77;;;;;;;2.76;97.33;102133.34;5070035;28;20234;-72
2022/01/16 03:08:23;;;;;;;48.10;27.80;;;;;;;2.75;97.04;102139.19;5067641;28;20889;-73
2022/01/16 03:13:33;;;;;;;43.77;25.90;;;;;;;2.78;97.32;102128.41;5067259;28;20200;-72
2022/01/16 03:15:59;;;;;;;47.10;27.70;;;;;;;2.78;97.10;102119.19;5062898;28;20592;-72
2022/01/16 03:23:33;;;;;;;46.83;28.43;;;;;;;2.82;97.41;102118.63;5061317;28;20200;-71
2022/01/16 03:25:59;;;;;;;48.43;27.97;;;;;;;2.83;97.28;102110.25;5063148;28;20280;-72
2022/01/16 03:28:25;;;;;;;50.07;28.30;;;;;;;2.83;97.64;102094.19;5056815;28;20220;-72
2022/01/16 03:30:52;;;;;;;47.53;28.03;;;;;;;2.84;97.16;102103.53;5068187;28;20189;-72
2022/01/16 03:33:17;;;;;;;52.90;28.10;;;;;;;2.87;97.71;102104.66;5066459;28;20193;-72
2022/01/16 03:35:44;;;;;;;48.63;28.40;;;;;;;2.86;97.77;102095.31;5066851;28;20200;-72
2022/01/16 03:38:10;;;;;;;49.97;29.47;;;;;;;2.88;97.51;102100.47;5059926;28;20693;-73
2022/01/16 03:40:35;;;;;;;55.27;30.90;;;;;;;2.86;97.17;102092.78;5067161;28;20238;-72
2022/01/16 03:43:11;;;;;;;52.43;29.77;;;;;;;2.87;97.68;102088.59;5067210;28;20239;-73
2022/01/16 03:45:37;;;;;;;54.67;29.43;;;;;;;2.87;97.79;102081.91;5066843;28;20219;-72
2022/01/16 03:48:02;;;;;;;52.90;29.23;;;;;;;2.89;97.64;102072.75;5066528;28;20216;-72
2022/01/16 03:50:27;;;;;;;56.57;29.57;;;;;;;2.88;98.31;102065.06;5067767;28;20527;-74
2022/01/16 03:52:53;;;;;;;54.70;30.23;;;;;;;2.89;97.54;102062.63;5061699;28;20192;-73
2022/01/16 03:55:20;;;;;;;53.70;28.10;;;;;;;2.88;97.67;102063.41;5065168;28;20193;-72
2022/01/16 03:57:45;;;;;;;61.00;31.60;;;;;;;2.90;98.10;102064.38;5067102;28;20216;-74
2022/01/16 04:00:11;;;;;;;58.30;29.70;;;;;;;2.90;98.34;102061.00;5061472;28;20189;-73
2022/01/16 04:02:37;;;;;;;57.97;29.57;;;;;;;2.90;98.22;102053.41;5059461;28;20192;-72
2022/01/16 04:05:02;;;;;;;55.37;29.87;;;;;;;2.90;98.39;102058.47;5067997;28;20192;-71
2022/01/16 04:07:33;;;;;;;56.27;28.67;;;;;;;2.93;98.95;102058.66;5066650;28;20220;-72
2022/01/16 04:09:58;;;;;;;61.27;30.13;;;;;;;2.91;98.00;102047.56;5060266;28;20208;-73
2022/01/16 04:12:24;;;;;;;58.20;30.00;;;;;;;2.92;98.36;102055.28;5065432;28;20197;-72
2022/01/16 04:17:20;;;;;;;56.90;30.00;;;;;;;2.93;98.51;102046.91;5065313;28;20287;-73
2022/01/16 04:19:46;;;;;;;56.70;30.03;;;;;;;2.94;98.55;102045.25;5066327;28;20205;-74
2022/01/16 04:22:12;;;;;;;66.13;31.83;;;;;;;2.94;99.49;102040.22;5067981;28;20568;-72
2022/01/16 04:24:38;;;;;;;61.13;30.13;;;;;;;2.95;99.29;102047.00;5060798;28;20197;-73
2022/01/16 04:27:04;;;;;;;61.00;30.23;;;;;;;2.97;98.54;102053.94;5056361;28;20221;-72
2022/01/16 04:29:29;;;;;;;60.60;28.97;;;;;;;2.98;98.73;102053.16;5061167;28;20327;-72
2022/01/16 04:31:55;;;;;;;68.70;32.00;;;;;;;2.99;99.44;102047.31;5060083;28;20238;-72
2022/01/16 04:34:21;;;;;;;69.30;30.77;;;;;;;3.01;99.09;102052.47;5063853;28;20189;-74
2022/01/16 04:36:46;;;;;;;69.83;30.73;;;;;;;2.98;98.97;102040.50;5059003;28;20212;-72
2022/01/16 04:39:15;;;;;;;71.33;30.43;;;;;;;3.02;99.07;102039.94;5061322;28;20189;-72
2022/01/16 04:44:26;;;;;;;67.13;28.47;;;;;;;3.06;99.30;102041.03;5067317;28;20180;-73
2022/01/16 04:46:52;;;;;;;65.07;29.03;;;;;;;3.09;99.65;102047.16;5062814;28;20574;-73
2022/01/16 04:49:18;;;;;;;69.10;30.97;;;;;;;3.09;99.04;102052.22;5068997;28;20184;-72
2022/01/16 04:51:43;;;;;;;67.33;30.93;;;;;;;3.08;98.76;102044.56;5069245;28;20188;-72
2022/01/16 04:54:09;;;;;;;65.00;28.03;;;;;;;3.07;99.62;102041.13;5059866;28;20190;-72
2022/01/16 04:56:34;;;;;;;64.87;30.20;;;;;;;3.09;99.41;102034.50;5056608;28;20213;-72
2022/01/16 04:59:00;;;;;;;65.20;29.17;;;;;;;3.11;99.70;102032.09;5058566;28;20216;-72
2022/01/16 05:01:25;;;;;;;65.07;30.30;;;;;;;3.13;98.87;102030.56;5060273;28;20191;-74
2022/01/16 05:03:50;;;;;;;64.57;30.30;;;;;;;3.14;99.29;102033.19;5064773;28;20193;-72
2022/01/16 05:06:16;;;;;;;62.87;28.57;;;;;;;3.14;98.26;102030.69;5069048;28;20176;-71
2022/01/16 05:08:41;;;;;;;51.30;26.03;;;;;;;3.14;98.01;102040.78;5065171;28;20668;-73
2022/01/16 05:11:08;;;;;;;52.97;27.37;;;;;;;3.15;97.94;102037.47;5062581;28;20185;-73
2022/01/16 05:18:48;;;;;;;49.97;27.13;;;;;;;3.19;97.19;102029.31;5064420;28;20201;-72
2022/01/16 05:21:14;;;;;;;45.83;25.27;;;;;;;3.22;96.36;102029.50;5059083;28;20181;-75
2022/01/16 05:23:41;;;;;;;47.57;24.83;;;;;;;3.22;96.38;102032.03;5068891;28;20735;-73
2022/01/16 05:26:07;;;;;;;43.00;22.67;;;;;;;3.23;96.20;102028.75;5070567;28;20197;-72
2022/01/16 05:28:32;;;;;;;46.60;25.63;;;;;;;3.24;96.28;102027.09;5062505;28;20224;-72
2022/01/16 05:30:58;;;;;;;46.10;24.73;;;;;;;3.25;95.64;102021.25;5071845;28;20721;-72
2022/01/16 05:33:23;;;;;;;43.67;24.43;;;;;;;3.25;96.20;102017.06;5063688;28;20201;-72
2022/01/16 05:35:48;;;;;;;42.30;23.40;;;;;;;3.26;96.05;102026.41;5062191;28;20201;-72
2022/01/16 05:38:14;;;;;;;45.00;23.43;;;;;;;3.26;95.59;102020.50;5070744;28;20247;-73
2022/01/16 05:40:40;;;;;;;43.40;24.70;;;;;;;3.23;95.41;102021.19;5064632;28;20827;-72
2022/01/16 05:43:06;;;;;;;47.83;25.67;;;;;;;3.24;95.07;102017.84;5065589;28;20208;-72
2022/01/16 05:45:32;;;;;;;46.87;24.73;;;;;;;3.25;95.20;102017.06;5061483;28;20783;-72
2022/01/16 05:47:57;;;;;;;46.27;24.07;;;;;;;3.27;94.69;102023.09;5068376;28;20213;-72
2022/01/16 05:50:24;;;;;;;46.57;24.50;;;;;;;3.29;94.62;102018.16;5062534;28;20275;-72
2022/01/16 05:52:50;;;;;;;48.63;25.40;;;;;;;3.22;93.87;102014.34;5057277;28;20202;-73
2022/01/16 05:55:16;;;;;;;41.50;22.37;;;;;;;3.24;93.68;102020.38;5060276;28;20177;-72
2022/01/16 05:57:42;;;;;;;45.60;24.23;;;;;;;3.26;93.52;102010.38;5057323;28;20248;-72
2022/01/16 06:00:10;;;;;;;44.00;23.30;;;;;;;3.27;94.06;102017.19;5057284;28;20225;-72
2022/01/16 06:02:36;;;;;;;46.40;22.27;;;;;;;3.24;93.38;102002.69;5067432;28;20220;-73
2022/01/16 06:05:01;;;;;;;41.40;22.47;;;;;;;3.24;93.31;102011.91;5060638;28;21828;-72
2022/01/16 06:07:27;;;;;;;42.47;22.27;;;;;;;3.27;93.23;102017.19;5063971;28;20227;-72
2022/01/16 06:09:52;;;;;;;41.43;22.47;;;;;;;3.27;93.08;102012.97;5059998;28;20275;-73
2022/01/16 06:12:21;;;;;;;43.10;22.77;;;;;;;3.29;93.28;102025.75;5056872;28;20238;-72
2022/01/16 06:14:46;;;;;;;44.30;23.10;;;;;;;3.28;93.81;102024.88;5068013;28;20190;-73
2022/01/16 06:17:12;;;;;;;44.33;23.23;;;;;;;3.28;94.06;102008.81;5064462;28;20648;-73
2022/01/16 06:19:37;;;;;;;40.97;21.50;;;;;;;3.25;93.42;102009.50;5066433;28;20197;-71
2022/01/16 06:22:03;;;;;;;41.77;22.43;;;;;;;3.27;93.42;102012.97;5064218;28;20186;-73
2022/01/16 06:24:29;;;;;;;44.20;23.37;;;;;;;3.27;93.79;101997.81;5067854;28;21072;-73
2022/01/16 06:26:54;;;;;;;44.27;22.63;;;;;;;3.26;93.60;101996.06;5061333;28;20209;-74
2022/01/16 06:29:20;;;;;;;46.17;24.23;;;;;;;3.25;93.95;101989.25;5068614;28;20181;-73
2022/01/16 06:31:45;;;;;;;42.60;21.47;;;;;;;3.27;93.66;101990.22;5066977;28;20662;-72
2022/01/16 06:34:11;;;;;;;40.50;21.53;;;;;;;3.26;93.91;101980.00;5054049;28;20540;-72
2022/01/16 06:36:37;;;;;;;42.43;22.27;;;;;;;3.24;93.98;101972.31;5069189;28;20310;-73
2022/01/16 06:39:05;;;;;;;39.60;21.60;;;;;;;3.24;93.83;101969.78;5069079;28;20670;-73
2022/01/16 06:41:31;;;;;;;37.70;20.63;;;;;;;3.25;93.45;101985.81;5070649;28;20181;-73
2022/01/16 06:43:56;;;;;;;41.20;22.37;;;;;;;3.26;93.23;101983.41;5070488;28;20199;-71
2022/01/16 06:46:21;;;;;;;42.10;21.47;;;;;;;3.25;93.80;101981.66;5070461;28;20181;-72
2022/01/16 06:48:47;;;;;;;43.43;23.10;;;;;;;3.25;93.06;101979.13;5070095;28;20678;-73
2022/01/16 06:51:12;;;;;;;43.23;23.17;;;;;;;3.25;94.18;101986.72;5070336;28;20193;-72
2022/01/16 06:53:38;;;;;;;41.80;23.07;;;;;;;3.23;93.71;101982.31;5070327;28;20189;-72
2022/01/16 06:56:03;;;;;;;46.20;22.83;;;;;;;3.22;93.32;101975.53;5069047;28;20193;-72
2022/01/16 06:58:29;;;;;;;44.93;24.40;;;;;;;3.25;94.16;101976.59;5068814;28;20797;-72
2022/01/16 07:00:54;;;;;;;52.40;26.00;;;;;;;3.22;93.85;101973.84;5068905;28;20189;-71
2022/01/16 07:03:19;;;;;;;54.97;25.57;;;;;;;3.25;93.50;101976.59;5070366;28;20177;-74
2022/01/16 07:05:45;;;;;;;50.97;24.73;;;;;;;3.26;93.94;101970.75;5070192;28;20193;-72
2022/01/16 07:08:11;;;;;;;52.60;25.57;;;;;;;3.27;94.46;101980.09;5070068;28;20240;-72
2022/01/16 07:10:36;;;;;;;54.00;26.53;;;;;;;3.26;93.48;101980.88;5069957;28;20185;-72
2022/01/16 07:13:02;;;;;;;60.03;28.27;;;;;;;3.26;93.82;101988.47;5069966;28;20650;-72
2022/01/16 07:15:27;;;;;;;61.00;29.27;;;;;;;3.28;93.58;101980.97;5070000;28;20228;-71
2022/01/16 07:17:53;;;;;;;70.43;32.20;;;;;;;3.28;93.93;101976.81;5069673;28;20208;-72
2022/01/16 07:20:18;;;;;;;69.40;32.50;;;;;;;3.30;93.40;101976.88;5069688;28;20235;-72
2022/01/16 07:22:44;;;;;;;71.87;32.83;;;;;;;3.31;93.63;101968.53;5068563;28;20189;-71
2022/01/16 07:25:11;;;;;;;63.20;30.27;;;;;;;3.33;93.85;101966.97;5068266;28;20203;-72
2022/01/16 07:27:37;;;;;;;63.90;28.60;;;;;;;3.30;93.56;101964.22;5051821;28;20698;-72
2022/01/16 07:30:03;;;;;;;64.73;30.33;;;;;;;3.33;93.57;101970.41;5049601;28;20220;-74
2022/01/16 07:32:29;;;;;;;65.33;30.93;;;;;;;3.31;93.33;101960.94;5049714;28;20182;-72
2022/01/16 07:34:54;;;;;;;65.00;31.30;;;;;;;3.31;93.36;101960.94;5049489;28;20185;-73
2022/01/16 07:37:19;;;;;;;64.43;29.83;;;;;;;3.31;93.79;101963.47;5049611;28;20209;-72
2022/01/16 07:39:44;;;;;;;61.40;28.50;;;;;;;3.33;93.14;101966.97;5047996;28;20327;-71
2022/01/16 07:42:10;;;;;;;59.07;29.47;;;;;;;3.34;93.75;101966.19;5052294;28;20234;-73
2022/01/16 07:44:36;;;;;;;61.10;30.03;;;;;;;3.33;93.36;101972.94;5068278;28;20212;-72
2022/01/16 07:47:01;;;;;;;59.03;28.93;;;;;;;3.34;93.34;101967.06;5069250;28;20686;-72
2022/01/16 07:49:27;;;;;;;58.77;28.63;;;;;;;3.31;94.13;101961.81;5069285;28;20184;-71
2022/01/16 07:51:52;;;;;;;67.87;31.83;;;;;;;3.30;94.26;101954.09;5069567;28;20181;-71
2022/01/16 07:54:19;;;;;;;63.63;31.27;;;;;;;3.27;94.53;101948.88;5069551;28;20220;-72
2022/01/16 07:56:44;;;;;;;63.47;30.27;;;;;;;3.27;94.18;101954.78;5069442;28;20254;-72
2022/01/16 07:59:09;;;;;;;70.00;30.70;;;;;;;3.27;94.30;101951.41;5068919;28;20227;-72
2022/01/16 08:01:35;;;;;;;73.20;32.47;;;;;;;3.28;94.21;101946.44;5069441;28;20181;-71
2022/01/16 08:04:00;;;;;;;67.73;32.40;;;;;;;3.29;94.31;101943.13;5069380;28;20187;-72
2022/01/16 08:06:25;;;;;;;66.07;30.93;;;;;;;3.29;93.87;101955.78;5069238;28;20188;-73
2022/01/16 08:08:51;;;;;;;65.17;30.70;;;;;;;3.31;93.99;101956.75;5067842;28;20247;-72
2022/01/16 08:11:16;;;;;;;66.40;32.47;;;;;;;3.29;93.28;101948.19;5069367;28;20181;-72
2022/01/16 08:13:41;;;;;;;62.50;29.67;;;;;;;3.33;93.01;101954.31;5069318;28;20181;-72
2022/01/16 08:16:07;;;;;;;57.97;30.07;;;;;;;3.31;93.53;101960.94;5069417;28;20188;-71
2022/01/16 08:18:33;;;;;;;63.30;31.33;;;;;;;3.29;93.67;101970.97;5071414;28;20239;-71
2022/01/16 08:20:58;;;;;;;59.30;29.67;;;;;;;3.31;93.20;101971.94;5072044;28;20283;-73
2022/01/16 08:23:24;;;;;;;66.10;31.67;;;;;;;3.30;93.99;101971.81;5073266;28;20239;-72
2022/01/16 08:25:50;;;;;;;69.47;31.40;;;;;;;3.29;93.99;101970.97;5068605;28;20190;-72
2022/01/16 08:28:16;;;;;;;64.10;30.53;;;;;;;3.29;93.95;101981.09;5052847;28;20578;-72
2022/01/16 08:30:41;;;;;;;69.37;32.63;;;;;;;3.29;94.46;101993.75;5053078;28;20209;-72
2022/01/16 08:33:07;;;;;;;70.50;32.53;;;;;;;3.31;94.07;101997.22;5054985;28;20185;-73
2022/01/16 08:35:32;;;;;;;71.03;31.50;;;;;;;3.30;93.97;102002.19;5071646;28;20196;-71
2022/01/16 08:37:57;;;;;;;69.53;31.63;;;;;;;3.30;94.67;101995.47;5072601;28;20739;-72
2022/01/16 08:40:24;;;;;;;72.47;31.90;;;;;;;3.30;94.55;101995.47;5072719;28;20272;-72
2022/01/16 08:42:49;;;;;;;64.07;30.70;;;;;;;3.34;94.50;101988.97;5073030;28;20569;-72
2022/01/16 08:45:15;;;;;;;74.27;33.03;;;;;;;3.32;94.19;101980.41;5071437;28;20181;-72
2022/01/16 08:47:42;;;;;;;67.10;31.23;;;;;;;3.31;94.54;101988.78;5072567;28;20678;-72
2022/01/16 08:50:09;;;;;;;72.87;31.93;;;;;;;3.32;94.48;101976.19;5072469;28;20177;-72
2022/01/16 08:52:34;;;;;;;73.63;32.50;;;;;;;3.29;94.54;101980.19;5072630;28;20185;-72
2022/01/16 08:55:01;;;;;;;73.07;33.77;;;;;;;3.31;94.23;101976.13;5072544;28;20189;-73
2022/01/16 08:57:26;;;;;;;67.20;32.90;;;;;;;3.30;94.22;101984.47;5072201;28;20211;-72
2022/01/16 08:59:52;;;;;;;80.30;33.83;;;;;;;3.32;93.91;101976.19;5070862;28;20579;-72
2022/01/16 09:02:17;;;;;;;75.73;34.03;;;;;;;3.28;94.34;101988.56;5072388;28;20181;-72
2022/01/16 09:04:42;;;;;;;73.53;33.20;;;;;;;3.27;93.83;101982.63;5072331;28;20552;-72
2022/01/16 09:07:08;;;;;;;77.03;32.47;;;;;;;3.25;94.21;101990.88;5072036;28;20216;-73
2022/01/16 09:09:33;;;;;;;80.90;34.20;;;;;;;3.25;93.51;101996.84;5072117;28;20185;-71
2022/01/16 09:11:59;;;;;;;84.43;34.83;;;;;;;3.25;94.21;101998.47;5070953;28;20212;-72
2022/01/16 09:14:25;;;;;;;82.47;33.63;;;;;;;3.24;93.86;101986.59;5072216;28;20257;-71
2022/01/16 09:16:50;;;;;;;88.77;35.77;;;;;;;3.25;93.68;101991.78;5070723;28;20284;-72
2022/01/16 09:19:15;;;;;;;89.53;36.53;;;;;;;3.23;94.61;102000.94;5071870;28;20803;-71
2022/01/16 09:21:41;;;;;;;88.23;35.70;;;;;;;3.20;94.21;101993.13;5072198;28;20553;-71
2022/01/16 09:24:06;;;;;;;93.33;35.07;;;;;;;3.20;95.08;101987.16;5071857;28;20681;-72
2022/01/16 09:26:32;;;;;;;93.93;36.73;;;;;;;3.22;95.12;101996.63;5068759;28;20715;-71
2022/01/16 09:28:57;;;;;;;94.07;36.57;;;;;;;3.21;94.58;101999.94;5050805;28;20217;-72
2022/01/16 09:31:22;;;;;;;92.17;36.20;;;;;;;3.23;94.67;102002.56;5051893;28;20189;-71
2022/01/16 09:33:48;;;;;;;90.80;35.33;;;;;;;3.21;94.63;102002.47;5052225;28;20178;-72
2022/01/16 09:36:13;;;;;;;89.30;36.60;;;;;;;3.22;94.79;102000.81;5051942;28;20305;-74
2022/01/16 09:38:39;;;;;;;95.70;34.87;;;;;;;3.20;95.32;101998.19;5051560;28;20288;-71
2022/01/16 09:41:05;;;;;;;98.87;37.60;;;;;;;3.18;95.88;101997.19;5054092;28;20186;-72
2022/01/16 09:43:35;;;;;;;95.53;35.93;;;;;;;3.20;95.40;101993.13;5070475;28;20193;-71
2022/01/16 09:46:01;;;;;;;101.97;36.80;;;;;;;3.24;95.06;101992.56;5071666;28;20638;-71
2022/01/16 09:48:27;;;;;;;90.53;35.87;;;;;;;3.26;95.55;101980.00;5071172;28;20300;-72
2022/01/16 09:50:53;;;;;;;95.67;36.07;;;;;;;3.25;95.55;101985.81;5071573;28;20752;-71
2022/01/16 09:53:20;;;;;;;89.83;35.97;;;;;;;3.26;95.25;101990.13;5071432;28;20584;-73
2022/01/16 09:55:45;;;;;;;90.53;34.27;;;;;;;3.27;95.38;101991.88;5071400;28;20196;-72
2022/01/16 09:58:11;;;;;;;87.03;35.50;;;;;;;3.27;95.55;101991.88;5069676;28;20213;-72
2022/01/16 10:00:36;;;;;;;95.27;36.67;;;;;;;3.28;95.23;101989.47;5071324;28;20615;-71
2022/01/16 10:03:02;;;;;;;98.47;36.17;;;;;;;3.29;95.41;101998.81;5071322;28;20204;-71
2022/01/16 10:05:31;;;;;;;93.47;36.53;;;;;;;3.35;95.41;101993.28;5070034;28;20221;-71
2022/01/16 10:07:59;;;;;;;95.87;36.80;;;;;;;3.29;96.19;101988.69;5070850;28;20220;-73
2022/01/16 10:10:27;;;;;;;90.70;35.47;;;;;;;3.33;96.18;101989.75;5071211;28;20230;-73
2022/01/16 10:12:55;;;;;;;90.73;34.90;;;;;;;3.37;95.87;101972.34;5069872;28;20204;-71
2022/01/16 10:15:23;;;;;;;92.43;36.07;;;;;;;3.42;96.18;101970.09;5071006;28;20751;-72
2022/01/16 10:17:51;;;;;;;91.80;36.43;;;;;;;3.41;96.26;101974.28;5070961;28;20197;-72
2022/01/16 10:20:17;;;;;;;98.57;36.30;;;;;;;3.44;96.31;101976.13;5070761;28;20196;-72
2022/01/16 10:22:47;;;;;;;95.80;36.90;;;;;;;3.49;96.27;101978.19;5069487;28;20613;-72
2022/01/16 10:25:15;;;;;;;99.07;37.57;;;;;;;3.50;96.37;101974.88;5070765;28;20679;-73
2022/01/16 10:27:43;;;;;;;89.83;35.67;;;;;;;3.48;96.13;101966.31;5060440;28;20208;-73
2022/01/16 10:30:14;;;;;;;95.20;36.90;;;;;;;3.48;95.87;101973.91;5064230;28;20955;-73
2022/01/16 10:32:42;;;;;;;97.53;39.20;;;;;;;3.51;96.87;101973.25;5070616;28;20206;-73
2022/01/16 10:35:14;;;;;;;102.97;39.37;;;;;;;3.52;96.21;101970.81;5069304;28;20181;-72
2022/01/16 10:37:54;;;;;;;103.53;38.03;;;;;;;3.51;96.82;101964.00;5070450;28;20228;-73
2022/01/16 10:40:31;;;;;;;100.73;37.17;;;;;;;3.51;96.26;101965.66;5070104;28;20176;-73
2022/01/16 10:43:05;;;;;;;91.57;36.87;;;;;;;3.51;97.15;101953.00;5069348;28;20181;-71
2022/01/16 10:45:32;;;;;;;100.23;38.57;;;;;;;3.53;97.53;101946.34;5070742;28;20173;-71
2022/01/16 10:48:00;;;;;;;109.80;38.30;;;;;;;3.59;97.79;101944.25;5070232;28;20674;-72
2022/01/16 10:50:42;;;;;;;96.90;37.13;;;;;;;3.61;97.76;101952.81;5070581;28;20847;-73
2022/01/16 10:53:16;;;;;;;99.67;36.70;;;;;;;3.62;97.39;101955.44;5070448;28;20276;-71
2022/01/16 10:55:47;;;;;;;95.00;37.50;;;;;;;3.65;97.67;101952.22;5070288;28;20189;-72
2022/01/16 10:58:26;;;;;;;92.30;35.87;;;;;;;3.66;97.27;101954.84;5068584;28;20209;-73
2022/01/16 11:00:54;;;;;;;91.20;34.63;;;;;;;3.68;97.62;101960.03;5070287;28;20177;-72
2022/01/16 11:03:22;;;;;;;96.13;35.40;;;;;;;3.74;97.17;101962.94;5070097;28;20201;-72
2022/01/16 11:05:50;;;;;;;78.93;32.37;;;;;;;3.70;97.22;101963.53;5070035;28;20185;-72
2022/01/16 11:08:18;;;;;;;81.73;33.67;;;;;;;3.76;96.99;101966.44;5069581;28;20228;-71
2022/01/16 11:10:56;;;;;;;84.23;33.63;;;;;;;3.78;97.65;101969.97;5070081;28;20193;-72
2022/01/16 11:13:24;;;;;;;74.20;31.57;;;;;;;3.78;97.58;101968.28;5069942;28;20176;-73
2022/01/16 11:15:52;;;;;;;87.20;32.57;;;;;;;3.82;97.26;101954.19;5069860;28;20288;-71
2022/01/16 11:18:20;;;;;;;76.27;31.87;;;;;;;3.81;97.35;101954.94;5068406;28;20547;-72
2022/01/16 11:21:02;;;;;;;85.03;32.57;;;;;;;3.84;97.46;101950.97;5068489;28;20176;-73
2022/01/16 11:23:32;;;;;;;81.03;31.73;;;;;;;3.91;97.70;101952.25;5069722;28;20254;-72
2022/01/16 11:26:02;;;;;;;80.07;32.50;;;;;;;3.91;98.30;101957.31;5068366;28;20197;-71
2022/01/16 11:28:28;;;;;;;81.23;32.57;;;;;;;3.90;98.28;101953.00;5066608;28;20216;-72
2022/01/16 11:31:02;;;;;;;76.70;31.77;;;;;;;3.88;98.33;101949.50;5068430;28;20607;-72
2022/01/16 11:33:29;;;;;;;80.97;31.53;;;;;;;3.87;98.36;101951.16;5051982;28;20806;-72
2022/01/16 11:35:58;;;;;;;72.93;29.43;;;;;;;3.88;98.68;101952.03;5069385;28;20201;-72
2022/01/16 11:38:29;;;;;;;77.17;30.13;;;;;;;3.87;98.51;101953.69;5047879;28;20247;-73
2022/01/16 11:40:54;;;;;;;73.03;28.70;;;;;;;3.90;97.87;101946.28;5057832;28;20191;-71
2022/01/16 11:43:33;;;;;;;75.17;30.67;;;;;;;3.91;98.28;101967.44;5069406;28;20590;-73
2022/01/16 11:46:04;;;;;;;67.40;29.17;;;;;;;3.90;98.26;101943.75;5069316;28;20177;-72
2022/01/16 11:48:50;;;;;;;70.40;28.23;;;;;;;3.94;98.62;101943.16;5067738;28;20716;-72
2022/01/16 11:51:34;;;;;;;60.40;26.37;;;;;;;3.93;98.08;101955.72;5051350;28;20187;-73
2022/01/16 11:54:07;;;;;;;62.03;26.40;;;;;;;3.95;98.62;101947.44;5068421;28;20205;-72
2022/01/16 11:56:41;;;;;;;60.33;26.83;;;;;;;3.96;98.30;101944.13;5069471;28;20598;-71
2022/01/16 11:59:10;;;;;;;56.07;25.63;;;;;;;3.97;98.35;101945.91;5069002;28;20188;-71
2022/01/16 12:01:43;;;;;;;57.60;26.53;;;;;;;3.98;98.37;101942.59;5067860;28;20190;-72
2022/01/16 12:04:28;;;;;;;56.57;26.67;;;;;;;4.00;98.00;101945.22;5069417;28;20193;-74